sensor_id;sensor_type;location;lat;lon;timestamp;temperature;humidity
48515;DHT22;34309;47.260;2.796;2022-07-23T00:02:06;27.30;30.60
48515;DHT22;34309;47.260;2.796;2022-07-23T00:04:33;27.30;30.90
48515;DHT22;34309;47.260;2.796;2022-07-23T00:06:58;27.30;30.90
48515;DHT22;34309;47.260;2.796;2022-07-23T00:09:24;27.30;30.90
48515;DHT22;34309;47.260;2.796;2022-07-23T00:11:50;27.30;30.90
48515;DHT22;34309;47.260;2.796;2022-07-23T00:14:16;27.30;30.80
48515;DHT22;34309;47.260;2.796;2022-07-23T00:16:42;27.30;31.00
48515;DHT22;34309;47.260;2.796;2022-07-23T00:19:07;27.30;30.90
48515;DHT22;34309;47.260;2.796;2022-07-23T00:21:33;27.30;30.80
48515;DHT22;34309;47.260;2.796;2022-07-23T00:23:59;27.30;30.80
48515;DHT22;34309;47.260;2.796;2022-07-23T00:26:24;27.30;31.00
48515;DHT22;34309;47.260;2.796;2022-07-23T00:28:50;27.30;30.90
48515;DHT22;34309;47.260;2.796;2022-07-23T00:31:16;27.20;31.00
48515;DHT22;34309;47.260;2.796;2022-07-23T00:33:41;27.30;31.10
48515;DHT22;34309;47.260;2.796;2022-07-23T00:36:07;27.20;31.00
48515;DHT22;34309;47.260;2.796;2022-07-23T00:38:33;27.30;31.10
48515;DHT22;34309;47.260;2.796;2022-07-23T00:40:59;27.20;30.80
48515;DHT22;34309;47.260;2.796;2022-07-23T00:43:25;27.20;30.90
48515;DHT22;34309;47.260;2.796;2022-07-23T00:45:51;27.20;30.80
48515;DHT22;34309;47.260;2.796;2022-07-23T00:48:16;27.20;31.10
48515;DHT22;34309;47.260;2.796;2022-07-23T00:50:43;27.30;31.10
48515;DHT22;34309;47.260;2.796;2022-07-23T00:53:09;27.20;31.90
48515;DHT22;34309;47.260;2.796;2022-07-23T00:55:35;27.20;30.90
48515;DHT22;34309;47.260;2.796;2022-07-23T00:58:02;27.20;31.00
48515;DHT22;34309;47.260;2.796;2022-07-23T01:00:28;27.20;31.20
48515;DHT22;34309;47.260;2.796;2022-07-23T01:02:54;27.20;31.10
48515;DHT22;34309;47.260;2.796;2022-07-23T01:05:20;27.20;31.20
48515;DHT22;34309;47.260;2.796;2022-07-23T01:07:48;27.20;30.90
48515;DHT22;34309;47.260;2.796;2022-07-23T01:10:15;27.20;31.10
48515;DHT22;34309;47.260;2.796;2022-07-23T01:13:04;27.20;31.10
48515;DHT22;34309;47.260;2.796;2022-07-23T01:15:32;27.20;31.00
48515;DHT22;34309;47.260;2.796;2022-07-23T01:17:58;27.20;31.00
48515;DHT22;34309;47.260;2.796;2022-07-23T01:20:24;27.20;31.00
48515;DHT22;34309;47.260;2.796;2022-07-23T01:22:51;27.20;31.00
48515;DHT22;34309;47.260;2.796;2022-07-23T01:25:17;27.20;31.30
48515;DHT22;34309;47.260;2.796;2022-07-23T01:27:43;27.20;31.00
48515;DHT22;34309;47.260;2.796;2022-07-23T01:30:09;27.20;31.00
48515;DHT22;34309;47.260;2.796;2022-07-23T01:32:35;27.20;30.90
48515;DHT22;34309;47.260;2.796;2022-07-23T01:35:01;27.20;31.10
48515;DHT22;34309;47.260;2.796;2022-07-23T01:37:27;27.20;31.00
48515;DHT22;34309;47.260;2.796;2022-07-23T01:39:53;27.20;31.00
48515;DHT22;34309;47.260;2.796;2022-07-23T01:42:19;27.20;31.10
48515;DHT22;34309;47.260;2.796;2022-07-23T01:44:44;27.20;31.10
48515;DHT22;34309;47.260;2.796;2022-07-23T01:47:10;27.20;30.80
48515;DHT22;34309;47.260;2.796;2022-07-23T01:49:36;27.20;31.10
48515;DHT22;34309;47.260;2.796;2022-07-23T01:52:02;27.20;31.00
48515;DHT22;34309;47.260;2.796;2022-07-23T01:54:33;27.20;31.00
48515;DHT22;34309;47.260;2.796;2022-07-23T01:56:59;27.20;31.20
48515;DHT22;34309;47.260;2.796;2022-07-23T01:59:26;27.20;30.80
48515;DHT22;34309;47.260;2.796;2022-07-23T02:01:52;27.10;30.90
48515;DHT22;34309;47.260;2.796;2022-07-23T02:04:19;27.10;30.70
48515;DHT22;34309;47.260;2.796;2022-07-23T02:06:46;27.20;31.00
48515;DHT22;34309;47.260;2.796;2022-07-23T02:09:12;27.10;30.70
48515;DHT22;34309;47.260;2.796;2022-07-23T02:11:38;27.10;30.80
48515;DHT22;34309;47.260;2.796;2022-07-23T02:14:04;27.10;30.90
48515;DHT22;34309;47.260;2.796;2022-07-23T02:16:30;27.10;31.00
48515;DHT22;34309;47.260;2.796;2022-07-23T02:18:56;27.10;30.80
48515;DHT22;34309;47.260;2.796;2022-07-23T02:21:21;27.10;31.00
48515;DHT22;34309;47.260;2.796;2022-07-23T02:23:47;27.20;31.00
48515;DHT22;34309;47.260;2.796;2022-07-23T02:26:13;27.10;30.70
48515;DHT22;34309;47.260;2.796;2022-07-23T02:28:39;27.10;30.80
48515;DHT22;34309;47.260;2.796;2022-07-23T02:31:05;27.10;30.80
48515;DHT22;34309;47.260;2.796;2022-07-23T02:33:32;27.10;30.90
48515;DHT22;34309;47.260;2.796;2022-07-23T02:35:58;27.10;30.80
48515;DHT22;34309;47.260;2.796;2022-07-23T02:38:24;27.10;30.80
48515;DHT22;34309;47.260;2.796;2022-07-23T02:40:49;27.10;30.70
48515;DHT22;34309;47.260;2.796;2022-07-23T02:43:15;27.10;30.90
48515;DHT22;34309;47.260;2.796;2022-07-23T02:45:41;27.10;30.60
48515;DHT22;34309;47.260;2.796;2022-07-23T02:48:06;27.10;30.90
48515;DHT22;34309;47.260;2.796;2022-07-23T02:50:32;27.10;30.90
48515;DHT22;34309;47.260;2.796;2022-07-23T02:52:58;27.10;31.00
48515;DHT22;34309;47.260;2.796;2022-07-23T02:55:24;27.10;30.80
48515;DHT22;34309;47.260;2.796;2022-07-23T02:57:49;27.10;31.00
48515;DHT22;34309;47.260;2.796;2022-07-23T03:00:15;27.10;31.10
48515;DHT22;34309;47.260;2.796;2022-07-23T03:02:41;27.10;30.80
48515;DHT22;34309;47.260;2.796;2022-07-23T03:05:07;27.10;31.00
48515;DHT22;34309;47.260;2.796;2022-07-23T03:07:33;27.10;31.30
48515;DHT22;34309;47.260;2.796;2022-07-23T03:09:58;27.10;31.10
48515;DHT22;34309;47.260;2.796;2022-07-23T03:12:24;27.10;30.90
48515;DHT22;34309;47.260;2.796;2022-07-23T03:14:50;27.10;31.00
48515;DHT22;34309;47.260;2.796;2022-07-23T03:17:17;27.10;31.00
48515;DHT22;34309;47.260;2.796;2022-07-23T03:19:42;27.10;31.00
48515;DHT22;34309;47.260;2.796;2022-07-23T03:22:08;27.10;31.10
48515;DHT22;34309;47.260;2.796;2022-07-23T03:24:34;27.10;31.10
48515;DHT22;34309;47.260;2.796;2022-07-23T03:27:18;27.10;30.90
48515;DHT22;34309;47.260;2.796;2022-07-23T03:29:44;27.10;30.90
48515;DHT22;34309;47.260;2.796;2022-07-23T03:32:10;27.10;30.90
48515;DHT22;34309;47.260;2.796;2022-07-23T03:34:36;27.10;31.00
48515;DHT22;34309;47.260;2.796;2022-07-23T03:37:02;27.10;31.60
48515;DHT22;34309;47.260;2.796;2022-07-23T03:39:27;27.10;31.00
48515;DHT22;34309;47.260;2.796;2022-07-23T03:41:53;27.10;31.30
48515;DHT22;34309;47.260;2.796;2022-07-23T03:44:19;27.00;31.00
48515;DHT22;34309;47.260;2.796;2022-07-23T03:46:44;27.10;31.00
48515;DHT22;34309;47.260;2.796;2022-07-23T03:49:10;27.00;31.20
48515;DHT22;34309;47.260;2.796;2022-07-23T03:51:36;27.00;31.20
48515;DHT22;34309;47.260;2.796;2022-07-23T03:54:01;27.00;31.00
48515;DHT22;34309;47.260;2.796;2022-07-23T03:56:27;27.00;31.00
48515;DHT22;34309;47.260;2.796;2022-07-23T03:58:53;27.00;30.90
48515;DHT22;34309;47.260;2.796;2022-07-23T04:01:19;27.00;31.30
48515;DHT22;34309;47.260;2.796;2022-07-23T04:03:44;27.00;31.10
48515;DHT22;34309;47.260;2.796;2022-07-23T04:06:11;27.00;30.90
48515;DHT22;34309;47.260;2.796;2022-07-23T04:08:37;27.00;31.00
48515;DHT22;34309;47.260;2.796;2022-07-23T04:11:03;27.00;30.90
48515;DHT22;34309;47.260;2.796;2022-07-23T04:13:29;27.00;30.80
48515;DHT22;34309;47.260;2.796;2022-07-23T04:15:55;27.00;31.00
48515;DHT22;34309;47.260;2.796;2022-07-23T04:18:20;27.00;31.00
48515;DHT22;34309;47.260;2.796;2022-07-23T04:20:50;27.00;31.40
48515;DHT22;34309;47.260;2.796;2022-07-23T04:23:16;27.00;31.20
48515;DHT22;34309;47.260;2.796;2022-07-23T04:25:42;27.00;31.20
48515;DHT22;34309;47.260;2.796;2022-07-23T04:28:08;27.00;30.80
48515;DHT22;34309;47.260;2.796;2022-07-23T04:30:34;27.00;30.90
48515;DHT22;34309;47.260;2.796;2022-07-23T04:33:00;27.00;30.90
48515;DHT22;34309;47.260;2.796;2022-07-23T04:35:26;27.00;31.10
48515;DHT22;34309;47.260;2.796;2022-07-23T04:37:52;27.00;30.90
48515;DHT22;34309;47.260;2.796;2022-07-23T04:40:17;27.00;31.10
48515;DHT22;34309;47.260;2.796;2022-07-23T04:42:43;27.00;31.00
48515;DHT22;34309;47.260;2.796;2022-07-23T04:45:09;27.00;31.00
48515;DHT22;34309;47.260;2.796;2022-07-23T04:47:35;27.00;31.30
48515;DHT22;34309;47.260;2.796;2022-07-23T04:50:01;27.00;30.90
48515;DHT22;34309;47.260;2.796;2022-07-23T04:52:26;27.00;31.20
48515;DHT22;34309;47.260;2.796;2022-07-23T04:54:52;27.00;31.00
48515;DHT22;34309;47.260;2.796;2022-07-23T04:57:18;27.00;31.00
48515;DHT22;34309;47.260;2.796;2022-07-23T04:59:43;27.00;31.10
48515;DHT22;34309;47.260;2.796;2022-07-23T05:02:09;27.00;31.30
48515;DHT22;34309;47.260;2.796;2022-07-23T05:04:35;27.00;31.10
48515;DHT22;34309;47.260;2.796;2022-07-23T05:07:01;27.00;31.00
48515;DHT22;34309;47.260;2.796;2022-07-23T05:09:26;26.90;31.10
48515;DHT22;34309;47.260;2.796;2022-07-23T05:11:52;27.00;30.90
48515;DHT22;34309;47.260;2.796;2022-07-23T05:14:18;26.90;31.10
48515;DHT22;34309;47.260;2.796;2022-07-23T05:16:43;27.00;30.90
48515;DHT22;34309;47.260;2.796;2022-07-23T05:19:09;26.90;30.90
48515;DHT22;34309;47.260;2.796;2022-07-23T05:21:35;26.90;30.70
48515;DHT22;34309;47.260;2.796;2022-07-23T05:24:01;26.90;31.00
48515;DHT22;34309;47.260;2.796;2022-07-23T05:26:26;26.90;30.80
48515;DHT22;34309;47.260;2.796;2022-07-23T05:28:52;26.90;31.00
48515;DHT22;34309;47.260;2.796;2022-07-23T05:31:18;27.00;31.10
48515;DHT22;34309;47.260;2.796;2022-07-23T05:33:44;26.90;31.20
48515;DHT22;34309;47.260;2.796;2022-07-23T05:36:10;26.90;31.00
48515;DHT22;34309;47.260;2.796;2022-07-23T05:38:36;26.90;31.10
48515;DHT22;34309;47.260;2.796;2022-07-23T05:41:01;27.00;31.00
48515;DHT22;34309;47.260;2.796;2022-07-23T05:43:27;26.90;30.90
48515;DHT22;34309;47.260;2.796;2022-07-23T05:45:53;26.90;31.20
48515;DHT22;34309;47.260;2.796;2022-07-23T05:48:20;26.90;31.10
48515;DHT22;34309;47.260;2.796;2022-07-23T05:50:46;26.90;31.20
48515;DHT22;34309;47.260;2.796;2022-07-23T05:53:12;26.90;31.20
48515;DHT22;34309;47.260;2.796;2022-07-23T05:55:38;26.90;30.90
48515;DHT22;34309;47.260;2.796;2022-07-23T05:58:04;26.90;31.10
48515;DHT22;34309;47.260;2.796;2022-07-23T06:00:31;26.90;31.00
48515;DHT22;34309;47.260;2.796;2022-07-23T06:02:57;26.90;31.00
48515;DHT22;34309;47.260;2.796;2022-07-23T06:05:23;26.90;31.10
48515;DHT22;34309;47.260;2.796;2022-07-23T06:07:49;26.90;30.90
48515;DHT22;34309;47.260;2.796;2022-07-23T06:10:15;26.90;31.10
48515;DHT22;34309;47.260;2.796;2022-07-23T06:12:41;26.90;31.00
48515;DHT22;34309;47.260;2.796;2022-07-23T06:15:08;26.90;31.10
48515;DHT22;34309;47.260;2.796;2022-07-23T06:17:34;26.90;31.40
48515;DHT22;34309;47.260;2.796;2022-07-23T06:20:00;26.90;31.00
48515;DHT22;34309;47.260;2.796;2022-07-23T06:22:25;26.90;31.00
48515;DHT22;34309;47.260;2.796;2022-07-23T06:24:51;26.90;31.00
48515;DHT22;34309;47.260;2.796;2022-07-23T06:27:18;26.90;31.00
48515;DHT22;34309;47.260;2.796;2022-07-23T06:29:43;26.90;31.30
48515;DHT22;34309;47.260;2.796;2022-07-23T06:32:09;26.90;31.10
48515;DHT22;34309;47.260;2.796;2022-07-23T06:34:35;26.90;31.10
48515;DHT22;34309;47.260;2.796;2022-07-23T06:37:01;26.90;31.00
48515;DHT22;34309;47.260;2.796;2022-07-23T06:39:27;26.80;30.90
48515;DHT22;34309;47.260;2.796;2022-07-23T06:41:53;26.80;31.00
48515;DHT22;34309;47.260;2.796;2022-07-23T06:44:18;26.80;31.00
48515;DHT22;34309;47.260;2.796;2022-07-23T06:46:44;26.80;31.10
48515;DHT22;34309;47.260;2.796;2022-07-23T06:49:10;26.80;31.10
48515;DHT22;34309;47.260;2.796;2022-07-23T06:51:36;26.80;31.10
48515;DHT22;34309;47.260;2.796;2022-07-23T06:54:02;26.80;31.80
48515;DHT22;34309;47.260;2.796;2022-07-23T06:56:28;26.80;31.20
48515;DHT22;34309;47.260;2.796;2022-07-23T06:58:54;26.80;31.30
48515;DHT22;34309;47.260;2.796;2022-07-23T07:01:20;26.80;31.10
48515;DHT22;34309;47.260;2.796;2022-07-23T07:03:47;26.80;31.20
48515;DHT22;34309;47.260;2.796;2022-07-23T07:06:13;26.90;31.00
48515;DHT22;34309;47.260;2.796;2022-07-23T07:08:39;26.80;31.30
48515;DHT22;34309;47.260;2.796;2022-07-23T07:11:04;26.80;31.20
48515;DHT22;34309;47.260;2.796;2022-07-23T07:13:30;26.80;31.00
48515;DHT22;34309;47.260;2.796;2022-07-23T07:15:56;26.80;31.10
48515;DHT22;34309;47.260;2.796;2022-07-23T07:18:22;26.80;30.90
48515;DHT22;34309;47.260;2.796;2022-07-23T07:20:48;26.80;31.20
48515;DHT22;34309;47.260;2.796;2022-07-23T07:23:13;26.80;31.10
48515;DHT22;34309;47.260;2.796;2022-07-23T07:25:40;26.80;31.10
48515;DHT22;34309;47.260;2.796;2022-07-23T07:28:05;26.80;31.20
48515;DHT22;34309;47.260;2.796;2022-07-23T07:30:31;26.80;31.10
48515;DHT22;34309;47.260;2.796;2022-07-23T07:32:57;26.80;31.10
48515;DHT22;34309;47.260;2.796;2022-07-23T07:35:23;26.80;31.00
48515;DHT22;34309;47.260;2.796;2022-07-23T07:37:48;26.80;31.40
48515;DHT22;34309;47.260;2.796;2022-07-23T07:40:14;26.80;31.30
48515;DHT22;34309;47.260;2.796;2022-07-23T07:42:50;26.80;31.10
48515;DHT22;34309;47.260;2.796;2022-07-23T07:45:16;26.80;31.40
48515;DHT22;34309;47.260;2.796;2022-07-23T07:47:42;26.80;31.30
48515;DHT22;34309;47.260;2.796;2022-07-23T07:50:08;26.80;31.10
48515;DHT22;34309;47.260;2.796;2022-07-23T07:52:35;26.80;31.30
48515;DHT22;34309;47.260;2.796;2022-07-23T07:55:06;26.80;31.70
48515;DHT22;34309;47.260;2.796;2022-07-23T07:57:32;26.80;31.10
48515;DHT22;34309;47.260;2.796;2022-07-23T07:59:58;26.80;30.90
48515;DHT22;34309;47.260;2.796;2022-07-23T08:02:24;26.80;31.30
48515;DHT22;34309;47.260;2.796;2022-07-23T08:04:49;26.80;31.00
48515;DHT22;34309;47.260;2.796;2022-07-23T08:07:15;26.80;31.20
48515;DHT22;34309;47.260;2.796;2022-07-23T08:09:41;26.80;31.10
48515;DHT22;34309;47.260;2.796;2022-07-23T08:12:07;26.80;31.50
48515;DHT22;34309;47.260;2.796;2022-07-23T08:14:34;26.80;31.20
48515;DHT22;34309;47.260;2.796;2022-07-23T08:16:59;26.80;31.50
48515;DHT22;34309;47.260;2.796;2022-07-23T08:19:25;26.80;31.00
48515;DHT22;34309;47.260;2.796;2022-07-23T08:21:51;26.80;31.00
48515;DHT22;34309;47.260;2.796;2022-07-23T08:24:17;26.80;31.30
48515;DHT22;34309;47.260;2.796;2022-07-23T08:26:42;26.80;31.00
48515;DHT22;34309;47.260;2.796;2022-07-23T08:29:09;26.80;31.10
48515;DHT22;34309;47.260;2.796;2022-07-23T08:31:35;26.70;31.20
48515;DHT22;34309;47.260;2.796;2022-07-23T08:34:00;26.80;31.40
48515;DHT22;34309;47.260;2.796;2022-07-23T08:36:28;26.80;31.10
48515;DHT22;34309;47.260;2.796;2022-07-23T08:38:57;26.80;31.30
48515;DHT22;34309;47.260;2.796;2022-07-23T08:41:22;26.80;31.40
48515;DHT22;34309;47.260;2.796;2022-07-23T08:43:48;26.80;31.40
48515;DHT22;34309;47.260;2.796;2022-07-23T08:46:14;26.80;31.50
48515;DHT22;34309;47.260;2.796;2022-07-23T08:48:42;26.80;31.40
48515;DHT22;34309;47.260;2.796;2022-07-23T08:51:08;26.80;31.20
48515;DHT22;34309;47.260;2.796;2022-07-23T08:53:36;26.70;31.20
48515;DHT22;34309;47.260;2.796;2022-07-23T08:56:05;26.70;31.10
48515;DHT22;34309;47.260;2.796;2022-07-23T08:58:31;26.70;31.40
48515;DHT22;34309;47.260;2.796;2022-07-23T09:00:57;26.70;31.30
48515;DHT22;34309;47.260;2.796;2022-07-23T09:03:27;26.80;31.20
48515;DHT22;34309;47.260;2.796;2022-07-23T09:05:54;26.80;31.30
48515;DHT22;34309;47.260;2.796;2022-07-23T09:08:39;26.70;31.30
48515;DHT22;34309;47.260;2.796;2022-07-23T09:11:07;26.80;31.30
48515;DHT22;34309;47.260;2.796;2022-07-23T09:13:52;26.80;31.10
48515;DHT22;34309;47.260;2.796;2022-07-23T09:19:00;26.70;31.20
48515;DHT22;34309;47.260;2.796;2022-07-23T09:21:30;26.70;31.30
48515;DHT22;34309;47.260;2.796;2022-07-23T09:24:09;26.70;31.30
48515;DHT22;34309;47.260;2.796;2022-07-23T09:26:38;26.80;31.30
48515;DHT22;34309;47.260;2.796;2022-07-23T09:29:20;26.70;31.30
48515;DHT22;34309;47.260;2.796;2022-07-23T09:31:56;26.70;31.10
48515;DHT22;34309;47.260;2.796;2022-07-23T09:34:35;26.70;31.30
48515;DHT22;34309;47.260;2.796;2022-07-23T09:37:16;26.70;31.40
48515;DHT22;34309;47.260;2.796;2022-07-23T09:39:43;26.80;31.30
48515;DHT22;34309;47.260;2.796;2022-07-23T09:42:17;26.70;31.20
48515;DHT22;34309;47.260;2.796;2022-07-23T09:44:55;26.70;31.10
48515;DHT22;34309;47.260;2.796;2022-07-23T09:47:22;26.70;31.10
48515;DHT22;34309;47.260;2.796;2022-07-23T09:50:07;26.70;31.10
48515;DHT22;34309;47.260;2.796;2022-07-23T09:52:48;26.70;31.20
48515;DHT22;34309;47.260;2.796;2022-07-23T09:55:18;26.70;31.30
48515;DHT22;34309;47.260;2.796;2022-07-23T09:57:45;26.70;31.20
48515;DHT22;34309;47.260;2.796;2022-07-23T10:00:13;26.70;31.90
48515;DHT22;34309;47.260;2.796;2022-07-23T10:02:39;26.70;31.30
48515;DHT22;34309;47.260;2.796;2022-07-23T10:05:06;26.70;31.20
48515;DHT22;34309;47.260;2.796;2022-07-23T10:07:35;26.70;31.20
48515;DHT22;34309;47.260;2.796;2022-07-23T10:10:03;26.80;31.40
48515;DHT22;34309;47.260;2.796;2022-07-23T10:12:29;26.70;31.30
48515;DHT22;34309;47.260;2.796;2022-07-23T10:15:10;26.70;31.20
48515;DHT22;34309;47.260;2.796;2022-07-23T10:17:36;26.70;31.40
48515;DHT22;34309;47.260;2.796;2022-07-23T10:20:04;26.70;31.50
48515;DHT22;34309;47.260;2.796;2022-07-23T10:22:37;26.70;31.40
48515;DHT22;34309;47.260;2.796;2022-07-23T10:25:24;26.70;31.40
48515;DHT22;34309;47.260;2.796;2022-07-23T10:33:54;26.70;31.50
48515;DHT22;34309;47.260;2.796;2022-07-23T10:41:50;26.70;31.40
48515;DHT22;34309;47.260;2.796;2022-07-23T10:44:21;26.70;31.30
48515;DHT22;34309;47.260;2.796;2022-07-23T10:49:31;26.70;31.40
48515;DHT22;34309;47.260;2.796;2022-07-23T10:54:41;26.70;31.50
48515;DHT22;34309;47.260;2.796;2022-07-23T10:57:08;26.70;31.30
48515;DHT22;34309;47.260;2.796;2022-07-23T11:02:41;26.70;31.50
48515;DHT22;34309;47.260;2.796;2022-07-23T11:05:12;26.70;31.40
48515;DHT22;34309;47.260;2.796;2022-07-23T11:08:17;26.70;31.40
48515;DHT22;34309;47.260;2.796;2022-07-23T11:26:54;26.70;31.50
48515;DHT22;34309;47.260;2.796;2022-07-23T11:32:01;26.70;31.60
48515;DHT22;34309;47.260;2.796;2022-07-23T11:34:41;26.70;31.30
48515;DHT22;34309;47.260;2.796;2022-07-23T11:37:12;26.70;31.80
48515;DHT22;34309;47.260;2.796;2022-07-23T11:39:39;26.70;31.60
48515;DHT22;34309;47.260;2.796;2022-07-23T11:42:06;26.70;31.50
48515;DHT22;34309;47.260;2.796;2022-07-23T11:44:37;26.70;31.50
48515;DHT22;34309;47.260;2.796;2022-07-23T11:47:05;26.70;31.60
48515;DHT22;34309;47.260;2.796;2022-07-23T11:49:33;26.70;31.50
48515;DHT22;34309;47.260;2.796;2022-07-23T11:52:14;26.70;31.50
48515;DHT22;34309;47.260;2.796;2022-07-23T11:57:16;26.70;31.40
48515;DHT22;34309;47.260;2.796;2022-07-23T11:59:42;26.70;31.40
48515;DHT22;34309;47.260;2.796;2022-07-23T12:02:09;26.70;31.40
48515;DHT22;34309;47.260;2.796;2022-07-23T12:04:44;26.70;31.40
48515;DHT22;34309;47.260;2.796;2022-07-23T12:07:34;26.70;31.30
48515;DHT22;34309;47.260;2.796;2022-07-23T12:10:08;26.70;31.50
48515;DHT22;34309;47.260;2.796;2022-07-23T12:12:40;26.70;31.50
48515;DHT22;34309;47.260;2.796;2022-07-23T12:15:07;26.70;31.50
48515;DHT22;34309;47.260;2.796;2022-07-23T12:17:36;26.70;31.30
48515;DHT22;34309;47.260;2.796;2022-07-23T12:20:06;26.70;32.20
48515;DHT22;34309;47.260;2.796;2022-07-23T12:22:41;26.70;31.40
48515;DHT22;34309;47.260;2.796;2022-07-23T12:25:25;26.70;31.10
48515;DHT22;34309;47.260;2.796;2022-07-23T12:33:06;26.70;31.40
48515;DHT22;34309;47.260;2.796;2022-07-23T12:38:14;26.70;31.30
48515;DHT22;34309;47.260;2.796;2022-07-23T12:40:59;26.70;31.30
48515;DHT22;34309;47.260;2.796;2022-07-23T12:43:31;26.70;31.30
48515;DHT22;34309;47.260;2.796;2022-07-23T12:51:26;26.70;31.50
48515;DHT22;34309;47.260;2.796;2022-07-23T12:54:05;26.70;31.60
48515;DHT22;34309;47.260;2.796;2022-07-23T12:56:37;26.70;31.50
48515;DHT22;34309;47.260;2.796;2022-07-23T12:59:10;26.80;31.60
48515;DHT22;34309;47.260;2.796;2022-07-23T13:01:40;26.70;31.50
48515;DHT22;34309;47.260;2.796;2022-07-23T13:04:13;26.70;31.50
48515;DHT22;34309;47.260;2.796;2022-07-23T13:09:12;26.70;31.50
48515;DHT22;34309;47.260;2.796;2022-07-23T13:11:38;26.70;31.60
48515;DHT22;34309;47.260;2.796;2022-07-23T13:14:04;26.70;31.90
48515;DHT22;34309;47.260;2.796;2022-07-23T13:16:31;26.80;31.60
48515;DHT22;34309;47.260;2.796;2022-07-23T13:18:58;26.80;31.40
48515;DHT22;34309;47.260;2.796;2022-07-23T13:21:25;26.80;31.50
48515;DHT22;34309;47.260;2.796;2022-07-23T13:23:51;26.80;31.50
48515;DHT22;34309;47.260;2.796;2022-07-23T13:26:17;26.80;31.50
48515;DHT22;34309;47.260;2.796;2022-07-23T13:28:43;26.80;31.50
48515;DHT22;34309;47.260;2.796;2022-07-23T13:31:09;26.80;31.70
48515;DHT22;34309;47.260;2.796;2022-07-23T13:33:35;26.80;31.50
48515;DHT22;34309;47.260;2.796;2022-07-23T13:36:01;26.80;31.40
48515;DHT22;34309;47.260;2.796;2022-07-23T13:38:27;26.80;31.80
48515;DHT22;34309;47.260;2.796;2022-07-23T13:40:53;26.80;31.60
48515;DHT22;34309;47.260;2.796;2022-07-23T13:43:21;26.80;31.60
48515;DHT22;34309;47.260;2.796;2022-07-23T13:45:48;26.80;31.80
48515;DHT22;34309;47.260;2.796;2022-07-23T13:48:14;26.80;32.00
48515;DHT22;34309;47.260;2.796;2022-07-23T13:50:42;26.80;31.60
48515;DHT22;34309;47.260;2.796;2022-07-23T13:53:13;26.80;31.70
48515;DHT22;34309;47.260;2.796;2022-07-23T13:55:40;26.80;31.70
48515;DHT22;34309;47.260;2.796;2022-07-23T13:58:06;26.80;31.50
48515;DHT22;34309;47.260;2.796;2022-07-23T14:00:34;26.80;31.60
48515;DHT22;34309;47.260;2.796;2022-07-23T14:03:00;26.80;31.60
48515;DHT22;34309;47.260;2.796;2022-07-23T14:05:26;26.80;31.50
48515;DHT22;34309;47.260;2.796;2022-07-23T14:07:54;26.80;31.40
48515;DHT22;34309;47.260;2.796;2022-07-23T14:10:21;26.80;31.60
48515;DHT22;34309;47.260;2.796;2022-07-23T14:12:47;26.80;31.60
48515;DHT22;34309;47.260;2.796;2022-07-23T14:15:14;26.90;31.40
48515;DHT22;34309;47.260;2.796;2022-07-23T14:17:42;26.80;31.50
48515;DHT22;34309;47.260;2.796;2022-07-23T14:20:09;26.90;31.70
48515;DHT22;34309;47.260;2.796;2022-07-23T14:22:35;26.80;31.60
48515;DHT22;34309;47.260;2.796;2022-07-23T14:25:01;26.80;31.60
48515;DHT22;34309;47.260;2.796;2022-07-23T14:27:28;26.80;31.70
48515;DHT22;34309;47.260;2.796;2022-07-23T14:29:55;26.80;31.50
48515;DHT22;34309;47.260;2.796;2022-07-23T14:32:21;26.80;31.50
48515;DHT22;34309;47.260;2.796;2022-07-23T14:34:48;26.90;31.40
48515;DHT22;34309;47.260;2.796;2022-07-23T14:37:14;26.80;31.60
48515;DHT22;34309;47.260;2.796;2022-07-23T14:39:41;26.80;31.40
48515;DHT22;34309;47.260;2.796;2022-07-23T14:42:08;26.80;31.70
48515;DHT22;34309;47.260;2.796;2022-07-23T14:44:34;26.80;31.50
48515;DHT22;34309;47.260;2.796;2022-07-23T14:47:00;26.80;31.50
48515;DHT22;34309;47.260;2.796;2022-07-23T14:49:26;26.90;31.70
48515;DHT22;34309;47.260;2.796;2022-07-23T14:51:52;26.90;31.60
48515;DHT22;34309;47.260;2.796;2022-07-23T14:54:18;26.90;31.50
48515;DHT22;34309;47.260;2.796;2022-07-23T14:56:45;26.90;31.50
48515;DHT22;34309;47.260;2.796;2022-07-23T14:59:12;26.90;31.60
48515;DHT22;34309;47.260;2.796;2022-07-23T15:01:38;26.90;31.50
48515;DHT22;34309;47.260;2.796;2022-07-23T15:04:05;26.90;31.60
48515;DHT22;34309;47.260;2.796;2022-07-23T15:06:32;26.90;31.70
48515;DHT22;34309;47.260;2.796;2022-07-23T15:08:58;26.90;31.40
48515;DHT22;34309;47.260;2.796;2022-07-23T15:11:23;26.90;31.50
48515;DHT22;34309;47.260;2.796;2022-07-23T15:13:50;26.90;31.60
48515;DHT22;34309;47.260;2.796;2022-07-23T15:16:16;26.90;31.30
48515;DHT22;34309;47.260;2.796;2022-07-23T15:18:41;26.90;31.40
48515;DHT22;34309;47.260;2.796;2022-07-23T15:21:07;26.90;31.40
48515;DHT22;34309;47.260;2.796;2022-07-23T15:23:33;26.90;31.60
48515;DHT22;34309;47.260;2.796;2022-07-23T15:26:00;26.90;31.30
48515;DHT22;34309;47.260;2.796;2022-07-23T15:28:26;26.90;31.60
48515;DHT22;34309;47.260;2.796;2022-07-23T15:30:52;26.90;31.50
48515;DHT22;34309;47.260;2.796;2022-07-23T15:33:19;26.90;31.50
48515;DHT22;34309;47.260;2.796;2022-07-23T15:35:45;26.90;31.30
48515;DHT22;34309;47.260;2.796;2022-07-23T15:38:11;26.90;31.40
48515;DHT22;34309;47.260;2.796;2022-07-23T15:40:36;26.90;31.50
48515;DHT22;34309;47.260;2.796;2022-07-23T15:43:02;26.90;31.40
48515;DHT22;34309;47.260;2.796;2022-07-23T15:45:30;26.90;31.30
48515;DHT22;34309;47.260;2.796;2022-07-23T15:47:57;26.90;31.40
48515;DHT22;34309;47.260;2.796;2022-07-23T15:50:23;26.90;31.40
48515;DHT22;34309;47.260;2.796;2022-07-23T15:52:48;26.90;31.30
48515;DHT22;34309;47.260;2.796;2022-07-23T15:55:14;26.90;31.30
48515;DHT22;34309;47.260;2.796;2022-07-23T15:57:40;26.90;31.20
48515;DHT22;34309;47.260;2.796;2022-07-23T16:00:06;26.90;31.10
48515;DHT22;34309;47.260;2.796;2022-07-23T16:02:33;27.00;32.10
48515;DHT22;34309;47.260;2.796;2022-07-23T16:04:59;26.90;31.10
48515;DHT22;34309;47.260;2.796;2022-07-23T16:07:24;27.00;31.30
48515;DHT22;34309;47.260;2.796;2022-07-23T16:09:50;27.00;31.50
48515;DHT22;34309;47.260;2.796;2022-07-23T16:12:16;26.90;31.30
48515;DHT22;34309;47.260;2.796;2022-07-23T16:14:42;27.00;31.30
48515;DHT22;34309;47.260;2.796;2022-07-23T16:17:07;27.00;31.40
48515;DHT22;34309;47.260;2.796;2022-07-23T16:19:33;27.00;31.30
48515;DHT22;34309;47.260;2.796;2022-07-23T16:21:59;27.00;31.30
48515;DHT22;34309;47.260;2.796;2022-07-23T16:24:25;27.00;31.20
48515;DHT22;34309;47.260;2.796;2022-07-23T16:26:50;27.00;31.50
48515;DHT22;34309;47.260;2.796;2022-07-23T16:29:16;27.00;31.20
48515;DHT22;34309;47.260;2.796;2022-07-23T16:31:42;27.00;31.20